createdAt,value
2023-01-07T00:01:38.331Z,12.10
2023-01-07T00:04:08.032Z,12.10
2023-01-07T00:06:37.369Z,12.10
2023-01-07T00:09:06.136Z,12.00
2023-01-07T00:11:38.157Z,12.10
2023-01-07T00:14:06.884Z,12.10
2023-01-07T00:16:35.521Z,12.10
2023-01-07T00:19:04.994Z,12.10
2023-01-07T00:21:32.182Z,12.10
2023-01-07T00:24:01.258Z,12.10
2023-01-07T00:26:31.400Z,12.10
2023-01-07T00:28:58.838Z,12.10
2023-01-07T00:31:31.477Z,12.10
2023-01-07T00:33:59.699Z,12.10
2023-01-07T00:36:30.576Z,12.20
2023-01-07T00:38:59.924Z,12.20
2023-01-07T00:41:27.217Z,12.20
2023-01-07T00:43:54.705Z,12.20
2023-01-07T00:46:21.620Z,12.20
2023-01-07T00:48:48.962Z,12.20
2023-01-07T00:51:18.127Z,12.20
2023-01-07T00:53:44.906Z,12.20
2023-01-07T00:56:14.472Z,12.20
2023-01-07T00:58:41.883Z,12.20
2023-01-07T01:01:12.467Z,12.20
2023-01-07T01:03:39.549Z,12.20
2023-01-07T01:06:13.760Z,12.20
2023-01-07T01:08:45.005Z,12.20
2023-01-07T01:11:13.517Z,12.20
2023-01-07T01:13:41.042Z,12.20
2023-01-07T01:16:10.527Z,12.20
2023-01-07T01:18:41.084Z,12.20
2023-01-07T01:21:13.002Z,12.20
2023-01-07T01:23:40.292Z,12.10
2023-01-07T01:26:09.596Z,12.10
2023-01-07T01:28:36.381Z,12.10
2023-01-07T01:31:04.019Z,12.10
2023-01-07T01:33:30.826Z,12.10
2023-01-07T01:35:57.820Z,12.10
2023-01-07T01:38:24.559Z,12.00
2023-01-07T01:40:51.336Z,12.00
2023-01-07T01:43:36.210Z,12.00
2023-01-07T01:46:26.367Z,12.00
2023-01-07T01:49:00.189Z,11.90
2023-01-07T01:51:34.450Z,12.00
2023-01-07T01:54:05.274Z,12.00
2023-01-07T01:56:39.027Z,12.00
2023-01-07T01:59:10.769Z,11.90
2023-01-07T02:01:37.956Z,12.00
2023-01-07T02:04:09.773Z,11.90
2023-01-07T02:06:40.866Z,11.90
2023-01-07T02:09:07.669Z,11.90
2023-01-07T02:11:39.856Z,11.90
2023-01-07T02:14:09.621Z,11.90
2023-01-07T02:17:08.318Z,11.90
2023-01-07T02:19:53.928Z,11.90
2023-01-07T02:22:36.258Z,11.90
2023-01-07T02:25:30.311Z,11.80
2023-01-07T02:28:20.566Z,11.80
2023-01-07T02:31:06.133Z,11.70
2023-01-07T02:33:51.426Z,11.70
2023-01-07T02:36:22.875Z,11.70
2023-01-07T02:39:22.164Z,11.70
2023-01-07T02:42:04.224Z,11.70
2023-01-07T02:44:31.110Z,11.70
2023-01-07T02:47:12.640Z,11.60
2023-01-07T02:49:39.424Z,11.60
2023-01-07T02:52:30.854Z,11.60
2023-01-07T02:55:00.243Z,11.60
2023-01-07T02:57:56.876Z,11.60
2023-01-07T03:00:32.444Z,11.60
2023-01-07T03:03:21.907Z,11.60
2023-01-07T03:06:02.753Z,11.50
2023-01-07T03:08:35.338Z,11.50
2023-01-07T03:11:08.109Z,11.50
2023-01-07T03:13:50.949Z,11.50
2023-01-07T03:16:39.686Z,11.50
2023-01-07T03:19:20.073Z,11.50
2023-01-07T03:21:50.959Z,11.40
2023-01-07T03:24:18.820Z,11.50
2023-01-07T03:26:52.297Z,11.50
2023-01-07T03:29:22.570Z,11.40
2023-01-07T03:32:11.667Z,11.40
2023-01-07T03:34:39.429Z,11.40
2023-01-07T03:37:12.147Z,11.40
2023-01-07T03:39:39.714Z,11.40
2023-01-07T03:42:27.614Z,11.40
2023-01-07T03:44:54.699Z,11.40
2023-01-07T03:47:22.341Z,11.40
2023-01-07T03:49:49.090Z,11.40
2023-01-07T03:52:15.837Z,11.40
2023-01-07T03:54:42.643Z,11.40
2023-01-07T03:57:09.365Z,11.40
2023-01-07T03:59:36.122Z,11.50
2023-01-07T04:02:02.988Z,11.50
2023-01-07T04:04:29.879Z,11.50
2023-01-07T04:06:56.762Z,11.50
2023-01-07T04:09:23.503Z,11.50
2023-01-07T04:11:50.508Z,11.50
2023-01-07T04:14:17.233Z,11.50
2023-01-07T04:16:44.237Z,11.50
2023-01-07T04:19:11.027Z,11.60
2023-01-07T04:21:37.766Z,11.60
2023-01-07T04:24:04.714Z,11.60
2023-01-07T04:26:33.883Z,11.50
2023-01-07T04:29:00.652Z,11.60
2023-01-07T04:31:27.344Z,11.50
2023-01-07T04:33:54.138Z,11.60
2023-01-07T04:36:20.964Z,11.60
2023-01-07T04:38:47.702Z,11.60
2023-01-07T04:41:14.765Z,11.60
2023-01-07T04:43:41.535Z,11.60
2023-01-07T04:46:08.343Z,11.60
2023-01-07T04:48:35.083Z,11.60
2023-01-07T04:51:01.980Z,11.60
2023-01-07T04:53:28.825Z,11.50
2023-01-07T04:55:55.556Z,11.50
2023-01-07T04:58:22.333Z,11.50
2023-01-07T05:00:49.082Z,11.50
2023-01-07T05:03:15.807Z,11.60
2023-01-07T05:05:42.530Z,11.50
2023-01-07T05:08:09.427Z,11.50
2023-01-07T05:10:36.311Z,11.50
2023-01-07T05:13:06.822Z,11.50
2023-01-07T05:15:33.971Z,11.40
2023-01-07T05:18:00.757Z,11.40
2023-01-07T05:20:27.735Z,11.40
2023-01-07T05:22:54.417Z,11.40
2023-01-07T05:25:21.123Z,11.40
2023-01-07T05:27:47.864Z,11.40
2023-01-07T05:30:14.984Z,11.40
2023-01-07T05:32:41.761Z,11.40
2023-01-07T05:35:08.852Z,11.40
2023-01-07T05:37:35.668Z,11.30
2023-01-07T05:40:02.361Z,11.30
2023-01-07T05:42:29.057Z,11.30
2023-01-07T05:44:55.789Z,11.30
2023-01-07T05:47:22.601Z,11.20
2023-01-07T05:49:49.487Z,11.20
2023-01-07T05:52:16.316Z,11.20
2023-01-07T05:54:43.056Z,11.20
2023-01-07T05:57:09.901Z,11.10
2023-01-07T05:59:36.662Z,11.10
2023-01-07T06:02:04.001Z,11.20
2023-01-07T06:04:30.831Z,11.10
2023-01-07T06:06:57.832Z,11.20
2023-01-07T06:09:26.690Z,11.10
2023-01-07T06:11:53.374Z,11.10
2023-01-07T06:14:20.059Z,11.10
2023-01-07T06:16:46.793Z,11.10
2023-01-07T06:19:13.697Z,11.10
2023-01-07T06:21:40.481Z,11.10
2023-01-07T06:24:07.648Z,11.10
2023-01-07T06:26:34.415Z,11.10
2023-01-07T06:29:03.550Z,11.10
2023-01-07T06:31:30.274Z,11.10
2023-01-07T06:33:59.214Z,11.10
2023-01-07T06:36:26.092Z,11.10
2023-01-07T06:38:52.794Z,11.10
2023-01-07T06:41:19.697Z,11.10
2023-01-07T06:43:46.471Z,11.10
2023-01-07T06:46:13.454Z,11.10
2023-01-07T06:48:40.169Z,11.00
2023-01-07T06:51:06.935Z,11.00
2023-01-07T06:53:35.918Z,11.00
2023-01-07T06:56:02.722Z,11.00
2023-01-07T06:58:29.966Z,11.00
2023-01-07T07:00:56.787Z,11.00
2023-01-07T07:03:23.477Z,11.00
2023-01-07T07:05:51.235Z,11.10
2023-01-07T07:08:18.096Z,11.10
2023-01-07T07:10:44.842Z,11.10
2023-01-07T07:13:12.054Z,11.10
2023-01-07T07:15:38.810Z,11.10
2023-01-07T07:18:06.046Z,11.10
2023-01-07T07:20:32.744Z,11.20
2023-01-07T07:22:59.442Z,11.20
2023-01-07T07:25:26.136Z,11.20
2023-01-07T07:27:53.019Z,11.20
2023-01-07T07:30:19.831Z,11.20
2023-01-07T07:32:46.689Z,11.20
2023-01-07T07:35:13.727Z,11.20
2023-01-07T07:37:40.790Z,11.30
2023-01-07T07:40:09.143Z,11.30
2023-01-07T07:43:10.284Z,11.30
2023-01-07T07:45:24.218Z,11.30
2023-01-07T07:47:51.391Z,11.30
2023-01-07T07:50:18.127Z,11.30
2023-01-07T07:52:46.152Z,11.40
2023-01-07T07:55:20.772Z,11.40
2023-01-07T07:57:54.662Z,11.40
2023-01-07T08:00:21.457Z,11.50
2023-01-07T08:02:48.221Z,11.40
2023-01-07T08:05:15.389Z,11.40
2023-01-07T08:07:42.651Z,11.40
2023-01-07T08:10:10.013Z,11.40
2023-01-07T08:12:38.425Z,11.40
2023-01-07T08:15:06.806Z,11.40
2023-01-07T08:17:36.158Z,11.40
2023-01-07T08:20:04.539Z,11.40
2023-01-07T08:22:33.678Z,11.50
2023-01-07T08:25:00.752Z,11.50
2023-01-07T08:27:28.830Z,11.50
2023-01-07T08:29:56.175Z,11.50
2023-01-07T08:32:23.445Z,11.50
2023-01-07T08:34:50.331Z,11.50
2023-01-07T08:37:17.433Z,11.50
2023-01-07T08:39:44.202Z,11.60
2023-01-07T08:42:10.885Z,11.60
2023-01-07T08:44:37.578Z,11.60
2023-01-07T08:47:04.573Z,11.60
2023-01-07T08:49:32.014Z,11.60
2023-01-07T08:51:58.710Z,11.60
2023-01-07T08:54:25.447Z,11.60
2023-01-07T08:56:52.203Z,11.60
2023-01-07T08:59:18.958Z,11.70
2023-01-07T09:01:45.775Z,11.70
2023-01-07T09:04:12.616Z,11.70
2023-01-07T09:06:39.394Z,11.70
2023-01-07T09:09:06.738Z,11.70
2023-01-07T09:11:33.456Z,11.70
2023-01-07T09:14:00.303Z,11.70
2023-01-07T09:16:27.172Z,11.70
2023-01-07T09:18:53.925Z,11.70
2023-01-07T09:21:20.642Z,11.70
2023-01-07T09:23:47.363Z,11.70
2023-01-07T09:26:14.120Z,11.80
2023-01-07T09:28:43.340Z,11.70
2023-01-07T09:31:10.105Z,11.80
2023-01-07T09:33:36.955Z,11.80
2023-01-07T09:36:03.878Z,11.80
2023-01-07T09:38:30.639Z,11.80
2023-01-07T09:40:57.689Z,11.80
2023-01-07T09:44:00.034Z,11.80
2023-01-07T09:46:30.057Z,11.80
2023-01-07T09:49:02.121Z,11.80
2023-01-07T09:51:41.789Z,11.90
2023-01-07T09:54:26.103Z,11.90
2023-01-07T09:56:53.060Z,11.90
2023-01-07T09:59:20.071Z,12.00
2023-01-07T10:01:52.833Z,12.00
2023-01-07T10:04:25.271Z,12.00
2023-01-07T10:07:04.237Z,12.00
2023-01-07T10:09:56.354Z,12.00
2023-01-07T10:13:02.041Z,12.10
2023-01-07T10:15:42.320Z,12.10
2023-01-07T10:18:17.930Z,12.20
2023-01-07T10:21:02.987Z,12.30
2023-01-07T10:23:34.068Z,12.30
2023-01-07T10:26:02.259Z,12.30
2023-01-07T10:28:46.506Z,12.40
2023-01-07T10:31:18.549Z,12.40
2023-01-07T10:33:48.221Z,12.40
2023-01-07T10:36:20.933Z,12.40
2023-01-07T10:39:00.163Z,12.50
2023-01-07T10:42:02.998Z,12.50
2023-01-07T10:45:15.987Z,12.50
2023-01-07T10:47:58.587Z,12.50
2023-01-07T10:50:38.813Z,12.50
2023-01-07T10:53:19.248Z,12.60
2023-01-07T10:56:08.177Z,12.60
2023-01-07T10:58:40.732Z,12.70
2023-01-07T11:01:08.791Z,12.70
2023-01-07T11:03:38.760Z,12.70
2023-01-07T11:06:10.671Z,12.70
2023-01-07T11:08:40.453Z,12.70
2023-01-07T11:11:13.857Z,12.70
2023-01-07T11:13:44.133Z,12.70
2023-01-07T11:16:17.433Z,12.70
2023-01-07T11:19:11.326Z,12.70
2023-01-07T11:21:52.452Z,12.70
2023-01-07T11:24:19.141Z,12.70
2023-01-07T11:26:46.512Z,12.70
2023-01-07T11:29:26.195Z,12.70
2023-01-07T11:32:05.598Z,12.70
2023-01-07T11:34:57.323Z,12.70
2023-01-07T11:37:52.769Z,12.70
2023-01-07T11:40:24.000Z,12.70
2023-01-07T11:42:51.294Z,12.70
2023-01-07T11:45:25.573Z,12.60
2023-01-07T11:48:02.114Z,12.60
2023-01-07T11:50:46.435Z,12.60
2023-01-07T11:53:15.679Z,12.60
2023-01-07T11:56:02.249Z,12.60
2023-01-07T11:58:32.155Z,12.60
2023-01-07T12:01:02.784Z,12.60
2023-01-07T12:03:29.623Z,12.60
2023-01-07T12:05:58.752Z,12.50
2023-01-07T12:08:27.292Z,12.50
2023-01-07T12:11:01.114Z,12.50
2023-01-07T12:13:28.297Z,12.50
2023-01-07T12:16:08.672Z,12.50
2023-01-07T12:19:03.642Z,12.60
2023-01-07T12:21:39.395Z,12.50
2023-01-07T12:24:18.372Z,12.50
2023-01-07T12:26:50.142Z,12.40
2023-01-07T12:29:58.468Z,12.50
2023-01-07T12:33:00.811Z,12.50
2023-01-07T12:35:43.175Z,12.40
2023-01-07T12:38:25.253Z,12.40
2023-01-07T12:40:54.793Z,12.40
2023-01-07T12:43:41.266Z,12.50
2023-01-07T12:46:13.745Z,12.50
2023-01-07T12:49:22.309Z,12.50
2023-01-07T12:52:05.484Z,12.50
2023-01-07T12:54:54.909Z,12.60
2023-01-07T12:57:29.043Z,12.50
2023-01-07T13:00:04.423Z,12.50
2023-01-07T13:02:41.740Z,12.50
2023-01-07T13:05:18.914Z,12.50
2023-01-07T13:08:05.828Z,12.60
2023-01-07T13:10:57.809Z,12.60
2023-01-07T13:13:28.191Z,12.60
2023-01-07T13:15:55.039Z,12.60
2023-01-07T13:18:22.022Z,12.60
2023-01-07T13:21:12.618Z,12.60
2023-01-07T13:24:08.227Z,12.60
2023-01-07T13:27:20.894Z,12.60
2023-01-07T13:29:58.504Z,12.50
2023-01-07T13:32:28.061Z,12.50
2023-01-07T13:35:19.010Z,12.50
2023-01-07T13:38:10.855Z,12.50
2023-01-07T13:40:37.460Z,12.50
2023-01-07T13:43:22.657Z,12.50
2023-01-07T13:45:59.206Z,12.50
2023-01-07T13:48:28.316Z,12.40
2023-01-07T13:51:02.213Z,12.40
2023-01-07T13:53:31.365Z,12.40
2023-01-07T13:56:16.905Z,12.50
2023-01-07T13:58:47.569Z,12.50
2023-01-07T14:01:17.796Z,12.50
2023-01-07T14:03:47.763Z,12.40
2023-01-07T14:06:20.597Z,12.50
2023-01-07T14:09:07.564Z,12.50
2023-01-07T14:11:35.324Z,12.50
2023-01-07T14:14:07.500Z,12.50
2023-01-07T14:17:06.488Z,12.50
2023-01-07T14:19:35.738Z,12.50
2023-01-07T14:22:26.944Z,12.50
2023-01-07T14:24:56.610Z,12.50
2023-01-07T14:27:31.646Z,12.50
2023-01-07T14:30:15.891Z,12.50
2023-01-07T14:32:44.374Z,12.50
2023-01-07T14:35:11.052Z,12.50
2023-01-07T14:37:46.938Z,12.50
2023-01-07T14:40:34.537Z,12.50
2023-01-07T14:43:03.171Z,12.50
2023-01-07T14:45:43.690Z,12.50
2023-01-07T14:48:10.539Z,12.50
2023-01-07T14:50:51.404Z,12.50
2023-01-07T14:53:57.109Z,12.50
2023-01-07T14:56:38.828Z,12.40
2023-01-07T14:59:30.401Z,12.40
2023-01-07T15:02:32.834Z,12.40
2023-01-07T15:05:08.449Z,12.30
2023-01-07T15:07:38.207Z,12.30
2023-01-07T15:10:38.822Z,12.30
2023-01-07T15:13:29.892Z,12.20
2023-01-07T15:16:01.237Z,12.20
2023-01-07T15:18:33.835Z,12.20
2023-01-07T15:21:09.510Z,12.10
2023-01-07T15:24:00.705Z,12.10
2023-01-07T15:26:55.466Z,12.10
2023-01-07T15:29:46.523Z,12.10
2023-01-07T15:32:52.571Z,12.00
2023-01-07T15:35:22.224Z,12.00
2023-01-07T15:37:50.793Z,12.00
2023-01-07T15:40:23.583Z,11.90
2023-01-07T15:42:52.728Z,11.90
2023-01-07T15:45:22.324Z,11.90
2023-01-07T15:47:50.192Z,11.90
2023-01-07T15:50:25.895Z,11.90
2023-01-07T15:53:16.588Z,11.90
2023-01-07T15:56:06.401Z,11.70
2023-01-07T15:58:48.951Z,11.70
2023-01-07T16:01:22.056Z,11.70
2023-01-07T16:03:52.514Z,11.60
2023-01-07T16:06:27.347Z,11.60
2023-01-07T16:08:54.185Z,11.70
2023-01-07T16:11:24.962Z,11.60
2023-01-07T16:13:59.715Z,11.60
2023-01-07T16:16:28.572Z,11.60
2023-01-07T16:18:57.147Z,11.60
2023-01-07T16:21:26.156Z,11.60
2023-01-07T16:23:54.181Z,11.60
2023-01-07T16:26:28.367Z,11.50
2023-01-07T16:28:59.844Z,11.50
2023-01-07T16:31:28.868Z,11.60
2023-01-07T16:33:59.048Z,11.60
2023-01-07T16:36:31.802Z,11.50
2023-01-07T16:39:03.460Z,11.50
2023-01-07T16:41:30.532Z,11.40
2023-01-07T16:43:59.090Z,11.40
2023-01-07T16:46:28.775Z,11.40
2023-01-07T16:49:18.834Z,11.30
2023-01-07T16:51:50.234Z,11.20
2023-01-07T16:54:26.054Z,11.20
2023-01-07T16:56:54.463Z,11.20
2023-01-07T16:59:24.933Z,11.10
2023-01-07T17:01:51.941Z,11.10
2023-01-07T17:04:25.179Z,11.10
2023-01-07T17:06:52.102Z,11.00
2023-01-07T17:09:23.506Z,11.00
2023-01-07T17:11:52.113Z,11.00
2023-01-07T17:14:40.519Z,11.00
2023-01-07T17:17:14.933Z,10.90
2023-01-07T17:19:46.024Z,10.90
2023-01-07T17:22:34.624Z,10.90
2023-01-07T17:25:09.413Z,10.90
2023-01-07T17:27:47.238Z,10.80
2023-01-07T17:30:19.563Z,10.70
2023-01-07T17:32:49.932Z,10.70
2023-01-07T17:35:19.492Z,10.70
2023-01-07T17:37:46.277Z,10.70
2023-01-07T17:40:14.238Z,10.70
2023-01-07T17:43:01.014Z,10.70
2023-01-07T17:45:29.135Z,10.60
2023-01-07T17:47:57.338Z,10.70
2023-01-07T17:50:25.006Z,10.70
2023-01-07T17:52:54.587Z,10.70
2023-01-07T17:55:30.363Z,10.70
2023-01-07T17:57:57.777Z,10.70
2023-01-07T18:00:26.718Z,10.70
2023-01-07T18:02:53.463Z,10.70
2023-01-07T18:05:25.345Z,10.70
2023-01-07T18:07:53.230Z,10.70
2023-01-07T18:10:29.094Z,10.80
2023-01-07T18:12:55.787Z,10.70
2023-01-07T18:15:27.122Z,10.70
2023-01-07T18:17:54.062Z,10.70
2023-01-07T18:20:22.079Z,10.70
2023-01-07T18:22:49.734Z,10.80
2023-01-07T18:25:19.533Z,10.70
2023-01-07T18:27:47.007Z,10.70
2023-01-07T18:30:19.163Z,10.80
2023-01-07T18:32:46.285Z,10.80
2023-01-07T18:35:13.227Z,10.80
2023-01-07T18:37:43.113Z,10.80
2023-01-07T18:40:11.024Z,10.80
2023-01-07T18:42:37.798Z,10.80
2023-01-07T18:45:06.148Z,10.90
2023-01-07T18:47:33.545Z,10.90
2023-01-07T18:50:00.403Z,10.90
2023-01-07T18:52:28.049Z,10.90
2023-01-07T18:54:54.828Z,11.00
2023-01-07T18:57:26.045Z,11.00
2023-01-07T18:59:54.918Z,11.00
2023-01-07T19:02:22.099Z,11.00
2023-01-07T19:04:49.274Z,11.00
2023-01-07T19:07:17.910Z,11.10
2023-01-07T19:09:45.180Z,11.10
2023-01-07T19:12:12.430Z,11.10
2023-01-07T19:14:40.053Z,11.10
2023-01-07T19:17:07.905Z,11.20
2023-01-07T19:19:47.403Z,11.20
2023-01-07T19:22:16.067Z,11.20
2023-01-07T19:24:43.090Z,11.20
2023-01-07T19:27:10.539Z,11.20
2023-01-07T19:29:37.493Z,11.30
2023-01-07T19:32:04.570Z,11.30
2023-01-07T19:34:31.414Z,11.30
2023-01-07T19:36:58.142Z,11.30
2023-01-07T19:39:24.887Z,11.30
2023-01-07T19:41:51.916Z,11.30
2023-01-07T19:44:18.752Z,11.40
2023-01-07T19:46:48.022Z,11.30
2023-01-07T19:49:14.766Z,11.30
2023-01-07T19:51:42.735Z,11.30
2023-01-07T19:54:14.935Z,11.20
2023-01-07T19:56:43.720Z,11.20
2023-01-07T19:59:14.905Z,11.20
2023-01-07T20:01:42.256Z,11.10
2023-01-07T20:04:09.097Z,11.10
2023-01-07T20:06:41.186Z,11.20
2023-01-07T20:09:12.150Z,11.20
2023-01-07T20:11:40.058Z,11.10
2023-01-07T20:14:07.707Z,11.10
2023-01-07T20:16:36.809Z,11.10
2023-01-07T20:19:05.810Z,11.10
2023-01-07T20:21:32.932Z,11.20
2023-01-07T20:23:59.727Z,11.20
2023-01-07T20:26:31.651Z,11.20
2023-01-07T20:28:59.422Z,11.20
2023-01-07T20:31:28.694Z,11.20
2023-01-07T20:33:55.897Z,11.20
2023-01-07T20:36:26.064Z,11.20
2023-01-07T20:38:53.221Z,11.20
2023-01-07T20:41:22.803Z,11.30
2023-01-07T20:43:58.023Z,11.10
2023-01-07T20:46:26.684Z,11.10
2023-01-07T20:48:53.546Z,11.10
2023-01-07T20:51:20.875Z,11.20
2023-01-07T20:53:47.749Z,11.10
2023-01-07T20:56:20.372Z,11.10
2023-01-07T20:58:48.103Z,11.20
2023-01-07T21:01:17.028Z,11.20
2023-01-07T21:03:44.182Z,11.20
2023-01-07T21:06:12.620Z,11.20
2023-01-07T21:08:39.899Z,11.20
2023-01-07T21:11:15.214Z,11.10
2023-01-07T21:13:42.022Z,11.10
2023-01-07T21:16:09.386Z,11.10
2023-01-07T21:18:36.253Z,11.10
2023-01-07T21:21:10.484Z,11.10
2023-01-07T21:23:37.219Z,11.10
2023-01-07T21:26:05.660Z,11.10
2023-01-07T21:28:32.910Z,11.10
2023-01-07T21:31:08.986Z,11.20
2023-01-07T21:33:37.174Z,11.20
2023-01-07T21:36:08.948Z,11.20
2023-01-07T21:38:35.909Z,11.20
2023-01-07T21:41:11.305Z,11.20
2023-01-07T21:43:38.361Z,11.30
2023-01-07T21:46:06.357Z,11.30
2023-01-07T21:48:35.015Z,11.30
2023-01-07T21:51:03.868Z,11.30
2023-01-07T21:53:35.104Z,11.30
2023-01-07T21:56:16.309Z,11.30
2023-01-07T21:58:44.516Z,11.40
2023-01-07T22:01:12.528Z,11.30
2023-01-07T22:03:43.055Z,11.30
2023-01-07T22:06:21.162Z,11.40
2023-01-07T22:08:48.925Z,11.40
2023-01-07T22:11:17.604Z,11.40
2023-01-07T22:13:44.693Z,11.40
2023-01-07T22:16:11.579Z,11.50
2023-01-07T22:18:38.408Z,11.40
2023-01-07T22:21:05.367Z,11.40
2023-01-07T22:23:32.114Z,11.40
2023-01-07T22:26:06.499Z,11.20
2023-01-07T22:28:36.989Z,11.10
2023-01-07T22:31:15.732Z,11.00
2023-01-07T22:33:42.480Z,10.80
2023-01-07T22:36:12.189Z,10.70
2023-01-07T22:38:39.082Z,10.70
2023-01-07T22:41:08.295Z,10.60
2023-01-07T22:43:36.064Z,10.60
2023-01-07T22:46:13.172Z,10.60
2023-01-07T22:48:40.051Z,10.60
2023-01-07T22:51:11.061Z,10.70
2023-01-07T22:53:38.068Z,10.70
2023-01-07T22:56:05.024Z,10.70
2023-01-07T22:58:31.730Z,10.70
2023-01-07T23:00:58.471Z,10.70
2023-01-07T23:03:25.546Z,10.70
2023-01-07T23:05:52.620Z,10.60
2023-01-07T23:08:19.773Z,10.60
2023-01-07T23:10:48.720Z,10.60
2023-01-07T23:13:15.839Z,10.60
2023-01-07T23:15:44.771Z,10.60
2023-01-07T23:18:12.248Z,10.50
2023-01-07T23:20:40.391Z,10.50
2023-01-07T23:23:07.756Z,10.50
2023-01-07T23:25:37.092Z,10.50
2023-01-07T23:28:04.655Z,10.50
2023-01-07T23:30:31.384Z,10.40
2023-01-07T23:32:58.306Z,10.40
2023-01-07T23:35:25.036Z,10.40
2023-01-07T23:37:51.898Z,10.40
2023-01-07T23:40:18.671Z,10.40
2023-01-07T23:42:49.245Z,10.40
2023-01-07T23:45:16.638Z,10.40
2023-01-07T23:47:46.001Z,10.30
2023-01-07T23:50:12.861Z,10.30
2023-01-07T23:52:40.176Z,10.30
2023-01-07T23:55:07.600Z,10.30
2023-01-07T23:57:34.430Z,10.30
